Terminal Aerodrome Forecast
Issued by NWS

Home | Current Version | Previous Version | Text Only | Print | Product List | Glossary On
Versions: 1 2 3 4 5 6 7 8 9 10 11 12 13 14
000
FTUS46 KMTR 250500
TAFSNS
TAF
KSNS 250534Z 2506/2606 00000KT P6SM SCT250
     FM250800 13008KT P6SM BKN015 BKN200
     FM251100 12014KT P6SM OVC015
      TEMPO 2515/2518 -SHRA
     FM251800 14014KT P6SM -SHRA OVC025
     FM252200 28010KT P6SM BKN050
     FM260300 29005KT P6SM SCT250=

USA.gov is the U.S. government's official web portal to all federal, state and local government web resources and services.